Time;durP1;ratioP1;P1;durP2;ratioP2;P2;SDS_P1;SDS_P2;PMS_P1;PMS_P2;Temp;Humidity;BMP_temperature;BMP_pressure;BME280_temperature;BME280_humidity;BME280_pressure;Samples;Min_cycle;Max_cycle;Signal;HPM_P1;HPM_P2
2022/09/10 00:02:21;;;;;;;16.70;11.55;;;15.10;99.90;;;;;;4954649;28;20057;-69
2022/09/10 00:04:46;;;;;;;18.13;12.35;;;15.00;99.90;;;;;;4975509;28;20546;-69
2022/09/10 00:07:13;;;;;;;15.80;12.07;;;15.10;99.90;;;;;;4976331;28;20077;-68
2022/09/10 00:09:39;;;;;;;17.02;11.95;;;15.00;99.90;;;;;;4981141;28;20120;-69
2022/09/10 00:12:04;;;;;;;17.77;12.18;;;15.00;99.90;;;;;;4979020;28;20034;-70
2022/09/10 00:14:30;;;;;;;18.92;10.90;;;15.00;99.90;;;;;;4974985;28;20042;-69
2022/09/10 00:16:56;;;;;;;18.02;11.98;;;15.00;99.90;;;;;;4984806;28;20118;-69
2022/09/10 00:19:22;;;;;;;14.23;11.30;;;15.10;99.90;;;;;;4979250;28;20407;-69
2022/09/10 00:21:49;;;;;;;14.32;11.07;;;15.10;99.90;;;;;;4965265;28;20038;-69
2022/09/10 00:24:15;;;;;;;18.90;12.55;;;15.10;99.90;;;;;;4984306;28;20054;-69
2022/09/10 00:26:40;;;;;;;17.25;11.95;;;15.10;99.90;;;;;;4977260;28;20038;-69
2022/09/10 00:29:09;;;;;;;17.25;12.00;;;15.20;99.90;;;;;;4977402;28;20133;-69
2022/09/10 00:31:36;;;;;;;20.95;13.20;;;15.20;99.90;;;;;;4988600;28;20038;-69
2022/09/10 00:34:04;;;;;;;27.17;12.35;;;15.20;99.90;;;;;;4982408;28;20042;-69
2022/09/10 00:36:33;;;;;;;16.25;12.50;;;15.20;99.90;;;;;;4968935;28;20498;-68
2022/09/10 00:39:03;;;;;;;18.35;13.27;;;15.20;99.90;;;;;;4968218;28;20488;-69
2022/09/10 00:41:30;;;;;;;18.85;13.43;;;15.20;99.90;;;;;;4964854;28;20054;-68
2022/09/10 00:44:01;;;;;;;18.45;13.30;;;15.40;99.90;;;;;;4978030;28;20031;-68
2022/09/10 00:46:42;;;;;;;16.63;13.25;;;15.30;99.90;;;;;;4975254;28;20046;-69
2022/09/10 00:49:21;;;;;;;19.10;13.43;;;15.30;99.90;;;;;;4973500;28;20051;-69
2022/09/10 00:51:50;;;;;;;19.15;14.10;;;15.30;99.90;;;;;;4983322;28;20057;-69
2022/09/10 00:54:19;;;;;;;17.48;12.80;;;15.30;99.90;;;;;;4979196;28;20053;-69
2022/09/10 00:56:45;;;;;;;18.92;13.27;;;15.30;99.90;;;;;;4976438;28;20042;-69
2022/09/10 00:59:15;;;;;;;19.83;13.40;;;15.40;99.90;;;;;;4972363;28;20047;-69
2022/09/10 01:01:41;;;;;;;20.40;14.48;;;15.30;99.90;;;;;;4978138;28;20035;-68
2022/09/10 01:04:09;;;;;;;17.33;13.48;;;15.30;99.90;;;;;;4978911;28;20140;-68
2022/09/10 01:06:35;;;;;;;;;;;15.30;99.90;;;;;;4966960;28;20046;-69
2022/09/10 01:09:01;;;;;;;24.33;14.70;;;15.30;99.90;;;;;;4979252;28;19956;-69
2022/09/10 01:11:41;;;;;;;20.75;14.30;;;15.30;99.90;;;;;;4977235;28;20050;-69
2022/09/10 01:14:32;;;;;;;18.00;13.80;;;15.40;99.90;;;;;;4974321;28;20057;-69
2022/09/10 01:17:05;;;;;;;22.20;14.68;;;15.30;99.90;;;;;;4988016;28;20046;-69
2022/09/10 01:19:57;;;;;;;19.00;13.65;;;15.30;99.90;;;;;;4985199;28;20089;-68
2022/09/10 01:22:42;;;;;;;18.75;13.05;;;15.30;99.90;;;;;;4970255;28;20117;-69
2022/09/10 01:25:53;;;;;;;20.00;14.70;;;15.30;99.90;;;;;;4970574;28;20042;-68
2022/09/10 01:28:24;;;;;;;;;;;15.30;99.90;;;;;;4987556;28;20096;-69
2022/09/10 01:30:56;;;;;;;18.63;13.30;;;15.30;99.90;;;;;;4976624;28;19918;-69
2022/09/10 01:33:41;;;;;;;19.30;14.50;;;15.30;99.90;;;;;;4977884;28;20042;-68
2022/09/10 01:36:22;;;;;;;21.02;14.20;;;15.30;99.90;;;;;;4992997;23;20047;-67
2022/09/10 01:38:50;;;;;;;20.67;14.93;;;15.30;99.90;;;;;;4973269;28;20058;-67
2022/09/10 01:41:19;;;;;;;25.38;15.90;;;15.30;99.90;;;;;;4970345;28;20050;-69
2022/09/10 01:43:44;;;;;;;23.25;14.73;;;15.30;99.90;;;;;;4966645;28;20067;-68
2022/09/10 01:46:28;;;;;;;20.75;14.98;;;15.30;99.90;;;;;;4970544;28;20078;-68
2022/09/10 01:49:18;;;;;;;20.55;15.10;;;15.30;99.90;;;;;;4971240;28;20135;-68
2022/09/10 01:52:05;;;;;;;;;;;15.30;99.90;;;;;;4971513;28;20089;-68
2022/09/10 01:54:37;;;;;;;23.58;16.30;;;15.30;99.90;;;;;;4970039;28;20314;-68
2022/09/10 01:57:32;;;;;;;20.45;15.57;;;15.30;99.90;;;;;;4967731;28;20074;-68
2022/09/10 02:00:08;;;;;;;23.00;15.50;;;15.30;99.90;;;;;;4973363;28;20038;-69
2022/09/10 02:02:49;;;;;;;22.73;15.52;;;15.20;99.90;;;;;;4972569;28;20493;-69
2022/09/10 02:05:19;;;;;;;22.95;16.15;;;15.30;99.90;;;;;;4973779;28;20053;-69
2022/09/10 02:07:47;;;;;;;24.52;16.67;;;15.30;99.90;;;;;;4968884;28;20129;-69
2022/09/10 02:10:13;;;;;;;23.98;16.55;;;15.30;99.90;;;;;;4972839;28;20100;-69
2022/09/10 02:12:40;;;;;;;22.13;16.50;;;15.30;99.90;;;;;;4970125;28;20549;-69
2022/09/10 02:15:07;;;;;;;27.55;18.20;;;15.30;99.90;;;;;;4975346;28;20047;-69
2022/09/10 02:17:36;;;;;;;32.70;19.35;;;15.30;99.90;;;;;;4965701;28;20057;-69
2022/09/10 02:20:05;;;;;;;28.00;21.30;;;15.30;99.90;;;;;;4966418;28;20047;-69
2022/09/10 02:22:35;;;;;;;32.33;20.95;;;15.30;99.90;;;;;;4973581;28;20057;-69
2022/09/10 02:25:01;;;;;;;29.40;20.63;;;15.30;99.90;;;;;;4971558;28;20058;-68
2022/09/10 02:27:28;;;;;;;30.73;21.95;;;15.30;99.90;;;;;;4972947;28;20494;-69
2022/09/10 02:29:55;;;;;;;37.08;21.83;;;15.20;99.90;;;;;;4974295;28;20051;-69
2022/09/10 02:32:21;;;;;;;34.78;22.70;;;15.20;99.90;;;;;;4969026;28;20039;-69
2022/09/10 02:34:47;;;;;;;33.72;22.10;;;15.30;99.90;;;;;;4974392;28;20098;-70
2022/09/10 02:37:14;;;;;;;34.80;22.38;;;15.30;99.90;;;;;;5013925;28;20410;-68
2022/09/10 02:39:40;;;;;;;32.58;23.15;;;15.30;99.90;;;;;;5005451;28;20081;-69
2022/09/10 02:42:06;;;;;;;39.83;24.30;;;15.30;99.90;;;;;;5012034;28;20065;-69
2022/09/10 02:44:32;;;;;;;31.20;21.88;;;15.30;99.90;;;;;;5003624;28;20046;-69
2022/09/10 02:46:57;;;;;;;34.40;21.15;;;15.30;99.90;;;;;;5008951;28;20046;-69
2022/09/10 02:49:23;;;;;;;32.78;22.92;;;15.30;99.90;;;;;;5010395;28;20034;-69
2022/09/10 02:51:50;;;;;;;37.55;22.80;;;15.30;99.90;;;;;;5012541;28;20046;-69
2022/09/10 02:54:18;;;;;;;34.45;23.85;;;15.30;99.90;;;;;;4994747;28;20038;-71
2022/09/10 02:56:46;;;;;;;33.08;22.70;;;15.30;99.90;;;;;;5009396;28;20069;-69
2022/09/10 02:59:12;;;;;;;35.38;23.50;;;15.40;99.90;;;;;;5012523;28;20072;-70
2022/09/10 03:01:37;;;;;;;32.28;22.17;;;15.30;99.90;;;;;;5009993;28;20054;-69
2022/09/10 03:04:03;;;;;;;33.20;22.88;;;15.30;99.90;;;;;;4997623;28;20050;-69
2022/09/10 03:06:29;;;;;;;39.03;25.35;;;15.30;99.90;;;;;;5009238;28;20118;-69
2022/09/10 03:08:54;;;;;;;38.38;24.75;;;15.30;99.90;;;;;;5009818;28;20406;-69
2022/09/10 03:11:22;;;;;;;33.13;24.13;;;15.20;99.90;;;;;;4992029;28;20037;-68
2022/09/10 03:13:49;;;;;;;40.30;26.02;;;15.30;99.90;;;;;;5007157;28;20458;-68
2022/09/10 03:16:16;;;;;;;36.30;24.75;;;15.30;99.90;;;;;;5007231;28;20057;-68
2022/09/10 03:18:42;;;;;;;38.88;26.15;;;15.30;99.90;;;;;;5010958;28;20104;-69
2022/09/10 03:21:13;;;;;;;35.00;26.02;;;15.30;99.90;;;;;;5007573;28;20509;-69
2022/09/10 03:23:40;;;;;;;32.15;22.55;;;15.20;99.90;;;;;;5011110;28;20045;-69
2022/09/10 03:26:06;;;;;;;36.50;23.60;;;15.30;99.90;;;;;;5007173;28;20158;-69
2022/09/10 03:28:32;;;;;;;34.88;24.40;;;15.30;99.90;;;;;;5006884;28;20450;-68
2022/09/10 03:31:00;;;;;;;33.72;24.60;;;15.20;99.90;;;;;;5009967;28;20606;-69
2022/09/10 03:33:26;;;;;;;36.65;24.65;;;15.30;99.90;;;;;;5012809;28;20060;-69
2022/09/10 03:35:53;;;;;;;36.15;25.13;;;15.30;99.90;;;;;;5004549;28;20540;-69
2022/09/10 03:38:19;;;;;;;31.40;24.05;;;15.30;99.90;;;;;;5008218;28;20473;-69
2022/09/10 03:40:45;;;;;;;37.20;26.10;;;15.30;99.90;;;;;;5003589;28;20052;-68
2022/09/10 03:43:11;;;;;;;39.38;24.90;;;15.30;99.90;;;;;;4992427;28;20041;-69
2022/09/10 03:45:38;;;;;;;38.65;27.08;;;15.40;99.90;;;;;;5007964;28;20053;-68
2022/09/10 03:48:04;;;;;;;39.00;26.17;;;15.30;99.90;;;;;;5006284;28;20095;-68
2022/09/10 03:50:30;;;;;;;38.08;26.42;;;15.30;99.90;;;;;;4997377;28;20114;-69
2022/09/10 03:52:56;;;;;;;40.08;25.88;;;15.30;99.90;;;;;;5008596;28;20046;-69
2022/09/10 03:55:22;;;;;;;38.00;25.83;;;15.30;99.90;;;;;;5008439;28;20119;-69
2022/09/10 03:57:48;;;;;;;37.38;25.75;;;15.30;99.90;;;;;;4989959;28;20049;-68
2022/09/10 04:00:14;;;;;;;41.85;26.30;;;15.30;99.90;;;;;;4974254;28;20458;-68
2022/09/10 04:02:40;;;;;;;39.53;26.17;;;15.30;99.90;;;;;;5007978;28;20034;-68
2022/09/10 04:05:07;;;;;;;44.70;27.77;;;15.30;99.90;;;;;;5004297;28;20053;-68
2022/09/10 04:07:33;;;;;;;40.35;27.40;;;15.30;99.90;;;;;;5009140;28;20054;-68
2022/09/10 04:09:59;;;;;;;40.10;26.27;;;15.30;99.90;;;;;;5008279;28;20414;-67
2022/09/10 04:12:25;;;;;;;47.17;28.95;;;15.30;99.90;;;;;;4988717;28;20053;-68
2022/09/10 04:14:52;;;;;;;37.17;27.25;;;15.30;99.90;;;;;;4985425;28;20150;-68
2022/09/10 04:17:18;;;;;;;40.53;26.95;;;15.30;99.90;;;;;;5005699;28;20113;-68
2022/09/10 04:19:44;;;;;;;46.92;28.48;;;15.30;99.90;;;;;;5007656;28;20034;-68
2022/09/10 04:22:11;;;;;;;43.60;28.02;;;15.30;99.90;;;;;;5003148;28;20057;-68
2022/09/10 04:24:37;;;;;;;40.58;27.60;;;15.30;99.90;;;;;;4987573;28;20129;-68
2022/09/10 04:27:03;;;;;;;44.47;29.27;;;15.30;99.90;;;;;;4988901;28;20133;-68
2022/09/10 04:29:28;;;;;;;43.67;28.60;;;15.30;99.90;;;;;;5006056;28;20042;-68
2022/09/10 04:31:54;;;;;;;49.28;29.35;;;15.20;99.90;;;;;;5005652;28;20033;-68
2022/09/10 04:34:21;;;;;;;45.53;29.55;;;15.20;99.90;;;;;;5004645;28;20038;-68
2022/09/10 04:36:48;;;;;;;56.88;32.85;;;15.20;99.90;;;;;;5006470;28;20079;-69
2022/09/10 04:39:14;;;;;;;57.97;30.83;;;15.30;99.90;;;;;;5006617;28;20125;-68
2022/09/10 04:41:40;;;;;;;51.30;32.28;;;15.30;99.90;;;;;;5007603;28;20133;-68
2022/09/10 04:44:06;;;;;;;50.05;32.00;;;15.30;99.90;;;;;;4991089;28;20805;-68
2022/09/10 04:46:31;;;;;;;49.67;30.17;;;15.30;99.90;;;;;;4985832;28;20042;-68
2022/09/10 04:48:57;;;;;;;44.90;28.98;;;15.30;99.90;;;;;;5008759;28;20111;-68
2022/09/10 04:51:23;;;;;;;53.45;31.98;;;15.30;99.90;;;;;;4990697;28;20122;-68
2022/09/10 04:53:49;;;;;;;46.20;29.95;;;15.30;99.90;;;;;;5007573;28;20161;-69
2022/09/10 04:56:15;;;;;;;51.60;30.52;;;15.30;99.90;;;;;;5005523;28;20041;-68
2022/09/10 04:58:42;;;;;;;56.15;31.45;;;15.30;99.90;;;;;;4989957;28;20057;-68
2022/09/10 05:01:09;;;;;;;54.45;31.73;;;15.20;99.90;;;;;;4984016;28;20050;-68
2022/09/10 05:03:34;;;;;;;48.85;29.20;;;15.30;99.90;;;;;;5002222;28;20081;-69
2022/09/10 05:06:01;;;;;;;49.90;29.50;;;15.30;99.90;;;;;;5009296;28;20442;-68
2022/09/10 05:08:26;;;;;;;46.97;29.83;;;15.30;99.90;;;;;;4989894;28;20038;-69
2022/09/10 05:10:52;;;;;;;44.92;27.20;;;15.40;99.90;;;;;;5000443;28;20030;-69
2022/09/10 05:13:18;;;;;;;48.83;28.10;;;15.30;99.90;;;;;;5008734;28;20494;-69
2022/09/10 05:15:44;;;;;;;48.42;28.60;;;15.30;99.90;;;;;;5007563;28;20077;-69
2022/09/10 05:18:10;;;;;;;46.13;29.30;;;15.30;99.90;;;;;;4997580;28;20078;-69
2022/09/10 05:20:36;;;;;;;46.05;27.20;;;15.30;99.90;;;;;;5009376;28;20073;-69
2022/09/10 05:23:02;;;;;;;41.65;26.98;;;15.30;99.90;;;;;;5002363;28;20041;-68
2022/09/10 05:25:28;;;;;;;43.13;28.00;;;15.30;99.90;;;;;;5006369;28;20089;-68
2022/09/10 05:27:54;;;;;;;44.47;28.65;;;15.30;99.90;;;;;;4988387;28;20069;-67
2022/09/10 05:30:20;;;;;;;41.92;27.40;;;15.30;99.90;;;;;;5006905;28;20094;-67
2022/09/10 05:32:46;;;;;;;39.40;26.55;;;15.30;99.90;;;;;;4988626;28;20471;-67
2022/09/10 05:35:12;;;;;;;39.55;26.70;;;15.30;99.90;;;;;;5006854;28;20101;-67
2022/09/10 05:37:38;;;;;;;41.63;27.38;;;15.40;99.90;;;;;;5006269;28;20068;-67
2022/09/10 05:40:06;;;;;;;39.90;27.40;;;15.40;99.90;;;;;;4985215;28;20045;-68
2022/09/10 05:42:32;;;;;;;;;;;15.40;99.90;;;;;;5009949;28;20050;-68
2022/09/10 05:44:58;;;;;;;41.78;27.92;;;15.40;99.90;;;;;;5007589;28;19921;-68
2022/09/10 05:47:23;;;;;;;37.45;25.13;;;15.40;99.90;;;;;;4987133;28;21464;-67
2022/09/10 05:49:50;;;;;;;36.40;25.40;;;15.40;99.90;;;;;;4989110;28;20659;-68
2022/09/10 05:52:16;;;;;;;38.53;25.58;;;15.40;99.90;;;;;;4992170;28;20093;-68
2022/09/10 05:54:43;;;;;;;43.67;27.60;;;15.40;99.90;;;;;;5007455;28;20073;-68
2022/09/10 05:57:09;;;;;;;41.63;27.83;;;15.40;99.90;;;;;;5007665;28;20046;-68
2022/09/10 05:59:35;;;;;;;38.72;25.02;;;15.40;99.90;;;;;;5004548;28;20561;-68
2022/09/10 06:02:00;;;;;;;36.20;24.60;;;15.40;99.90;;;;;;5005220;28;20057;-67
2022/09/10 06:04:26;;;;;;;37.63;25.42;;;15.40;99.90;;;;;;4988915;28;20489;-67
2022/09/10 06:06:53;;;;;;;35.15;23.85;;;15.30;99.90;;;;;;5005611;28;20510;-67
2022/09/10 06:09:18;;;;;;;38.53;24.83;;;15.50;99.90;;;;;;5011081;28;20109;-68
2022/09/10 06:11:47;;;;;;;30.33;21.58;;;15.50;99.90;;;;;;5009154;28;20532;-67
2022/09/10 06:14:13;;;;;;;31.98;23.02;;;15.50;99.90;;;;;;4990828;28;20530;-67
2022/09/10 06:16:39;;;;;;;31.65;22.10;;;15.50;99.90;;;;;;5008703;28;20168;-67
2022/09/10 06:19:05;;;;;;;32.50;22.42;;;15.50;99.90;;;;;;5011038;28;20084;-67
2022/09/10 06:21:31;;;;;;;32.97;21.67;;;15.50;99.90;;;;;;5006271;28;20073;-67
2022/09/10 06:23:57;;;;;;;30.98;22.08;;;15.50;99.90;;;;;;4991601;28;20046;-68
2022/09/10 06:26:23;;;;;;;33.75;22.63;;;15.50;99.90;;;;;;5012961;28;20038;-67
2022/09/10 06:28:48;;;;;;;34.47;22.33;;;15.60;99.90;;;;;;4976468;28;20413;-68
2022/09/10 06:31:18;;;;;;;35.17;22.13;;;15.60;99.90;;;;;;4992213;28;20045;-69
2022/09/10 06:33:45;;;;;;;31.02;20.83;;;15.70;99.90;;;;;;5006244;28;20049;-69
2022/09/10 06:36:12;;;;;;;33.88;21.98;;;15.70;99.90;;;;;;5009604;28;20054;-69
2022/09/10 06:38:38;;;;;;;34.55;23.15;;;15.70;99.90;;;;;;4988608;28;20486;-69
2022/09/10 06:41:06;;;;;;;29.90;22.65;;;15.80;99.90;;;;;;4974674;28;20387;-67
2022/09/10 06:43:35;;;;;;;33.40;22.88;;;15.80;99.90;;;;;;5012610;28;20426;-68
2022/09/10 06:46:04;;;;;;;29.38;22.00;;;15.80;99.90;;;;;;4989499;28;20546;-69
2022/09/10 06:48:30;;;;;;;36.70;23.65;;;15.80;99.90;;;;;;5010175;28;20053;-69
2022/09/10 06:50:57;;;;;;;31.42;22.30;;;15.80;99.90;;;;;;5011805;28;20056;-68
2022/09/10 06:53:26;;;;;;;31.95;22.90;;;15.80;99.90;;;;;;5012539;28;20038;-68
2022/09/10 06:55:52;;;;;;;33.92;23.55;;;15.90;99.90;;;;;;5009988;28;20042;-67
2022/09/10 06:58:20;;;;;;;33.75;23.08;;;15.90;99.90;;;;;;5006300;28;20042;-68
2022/09/10 07:00:46;;;;;;;34.90;21.95;;;15.90;99.90;;;;;;5009712;28;20561;-68
2022/09/10 07:03:17;;;;;;;32.13;21.08;;;16.00;99.90;;;;;;5011718;28;20045;-68
2022/09/10 07:05:46;;;;;;;30.00;20.75;;;15.90;99.90;;;;;;4988208;28;20049;-68
2022/09/10 07:08:16;;;;;;;32.90;21.30;;;16.00;99.90;;;;;;5006103;28;20116;-68
2022/09/10 07:10:44;;;;;;;32.53;22.02;;;16.10;99.90;;;;;;5010136;28;20069;-67
2022/09/10 07:13:11;;;;;;;35.38;22.40;;;16.00;99.90;;;;;;4989047;28;20159;-67
2022/09/10 07:15:48;;;;;;;33.47;21.50;;;16.00;99.90;;;;;;4990535;28;20574;-67
2022/09/10 07:18:14;;;;;;;33.28;21.60;;;16.00;99.90;;;;;;4994270;28;20524;-69
2022/09/10 07:20:44;;;;;;;34.75;22.08;;;16.10;99.90;;;;;;5005478;28;20034;-69
2022/09/10 07:23:12;;;;;;;29.45;21.58;;;16.00;99.90;;;;;;4991699;28;20581;-69
2022/09/10 07:25:39;;;;;;;31.67;22.10;;;16.10;99.90;;;;;;4972389;28;20050;-69
2022/09/10 07:28:12;;;;;;;33.63;20.88;;;16.10;99.90;;;;;;5007739;28;20034;-70
2022/09/10 07:30:38;;;;;;;34.47;21.02;;;16.10;99.90;;;;;;4992926;28;20045;-70
2022/09/10 07:33:05;;;;;;;33.70;22.40;;;16.20;99.90;;;;;;5012165;28;20045;-70
2022/09/10 07:35:35;;;;;;;32.72;21.25;;;16.20;99.90;;;;;;4991438;28;20153;-69
2022/09/10 07:38:01;;;;;;;33.10;21.55;;;16.20;99.90;;;;;;4993967;28;20140;-69
2022/09/10 07:40:27;;;;;;;30.17;21.23;;;16.20;99.90;;;;;;5007137;28;20506;-68
2022/09/10 07:42:54;;;;;;;33.83;21.85;;;16.20;99.90;;;;;;5007583;28;20105;-69
2022/09/10 07:45:21;;;;;;;33.10;20.90;;;16.20;99.90;;;;;;5005058;28;20042;-69
2022/09/10 07:47:49;;;;;;;31.33;21.05;;;16.20;99.90;;;;;;5010498;28;20085;-69
2022/09/10 07:50:15;;;;;;;30.83;21.13;;;16.30;99.90;;;;;;5010134;28;20042;-68
2022/09/10 07:52:41;;;;;;;30.13;21.20;;;16.30;99.90;;;;;;5005596;28;20141;-69
2022/09/10 07:55:07;;;;;;;33.38;21.75;;;16.30;99.90;;;;;;5000917;28;20491;-68
2022/09/10 07:57:37;;;;;;;37.72;21.60;;;16.30;99.90;;;;;;5004054;28;20558;-69
2022/09/10 08:00:11;;;;;;;30.02;21.45;;;16.30;99.90;;;;;;4982825;28;20050;-69
2022/09/10 08:02:38;;;;;;;30.10;20.80;;;16.30;99.90;;;;;;4992655;28;20529;-68
2022/09/10 08:05:07;;;;;;;31.30;20.42;;;16.20;99.90;;;;;;4990778;28;20795;-68
2022/09/10 08:07:32;;;;;;;27.52;20.05;;;16.20;99.90;;;;;;4989335;28;20046;-69
2022/09/10 08:09:58;;;;;;;33.45;22.55;;;16.30;99.90;;;;;;4987117;28;20409;-69
2022/09/10 08:12:24;;;;;;;31.00;20.23;;;16.30;99.90;;;;;;4984960;28;20089;-69
2022/09/10 08:14:51;;;;;;;33.90;20.98;;;16.30;99.90;;;;;;4963132;28;20054;-69
2022/09/10 08:17:17;;;;;;;31.33;21.20;;;16.40;99.90;;;;;;4987791;28;20034;-67
2022/09/10 08:19:43;;;;;;;34.63;22.40;;;16.40;99.90;;;;;;4971611;28;20072;-67
2022/09/10 08:22:11;;;;;;;36.25;22.27;;;16.40;99.90;;;;;;4957193;28;20054;-68
2022/09/10 08:24:36;;;;;;;31.88;21.73;;;16.40;99.90;;;;;;4992266;28;20042;-67
2022/09/10 08:27:02;;;;;;;34.92;21.35;;;16.40;99.90;;;;;;4989910;28;20097;-68
2022/09/10 08:29:28;;;;;;;34.15;21.92;;;16.40;99.90;;;;;;4985130;28;20038;-68
2022/09/10 08:31:54;;;;;;;36.22;22.35;;;16.40;99.90;;;;;;4989926;28;20513;-68
2022/09/10 08:34:20;;;;;;;34.38;21.98;;;16.40;99.90;;;;;;4970392;28;20385;-68
2022/09/10 08:36:45;;;;;;;36.67;22.27;;;16.30;99.90;;;;;;4962983;28;20047;-68
2022/09/10 08:39:14;;;;;;;35.25;21.85;;;16.40;99.90;;;;;;4982268;28;20104;-68
2022/09/10 08:41:48;;;;;;;41.47;22.90;;;16.40;99.90;;;;;;4973622;28;20042;-68
2022/09/10 08:44:33;;;;;;;35.55;21.25;;;16.40;99.90;;;;;;4983854;28;20031;-68
2022/09/10 08:47:20;;;;;;;32.72;20.90;;;16.50;99.90;;;;;;4969741;28;20053;-69
2022/09/10 08:49:50;;;;;;;35.97;20.52;;;16.40;99.90;;;;;;4964355;28;20053;-68
2022/09/10 08:52:21;;;;;;;33.90;22.00;;;16.50;99.90;;;;;;4977570;28;20410;-69
2022/09/10 08:55:04;;;;;;;37.28;22.77;;;16.40;99.90;;;;;;4986452;28;20046;-68
2022/09/10 08:57:40;;;;;;;36.55;22.17;;;16.50;99.90;;;;;;4969876;28;20550;-69
2022/09/10 09:00:12;;;;;;;35.40;22.65;;;16.50;99.90;;;;;;4985441;28;20038;-69
2022/09/10 09:02:47;;;;;;;35.25;21.35;;;16.50;99.90;;;;;;4984050;28;20133;-69
2022/09/10 09:05:19;;;;;;;31.27;21.05;;;16.60;99.90;;;;;;4991905;28;20054;-69
2022/09/10 09:07:47;;;;;;;35.72;21.98;;;16.60;99.90;;;;;;4985990;28;20101;-69
2022/09/10 09:10:56;;;;;;;36.70;21.08;;;16.50;99.90;;;;;;4989956;28;20038;-69
2022/09/10 09:13:35;;;;;;;29.40;19.65;;;16.60;99.90;;;;;;4979998;28;20057;-69
2022/09/10 09:16:15;;;;;;;34.83;21.25;;;16.70;99.90;;;;;;4974038;28;20070;-69
2022/09/10 09:19:08;;;;;;;30.60;20.00;;;16.60;99.90;;;;;;4987033;28;20451;-69
2022/09/10 09:21:54;;;;;;;32.42;20.02;;;16.60;99.90;;;;;;4985261;28;20086;-69
2022/09/10 09:24:45;;;;;;;30.42;20.23;;;16.60;99.90;;;;;;4964391;28;20073;-68
2022/09/10 09:27:15;;;;;;;37.40;20.73;;;16.70;99.90;;;;;;4990496;28;20046;-68
2022/09/10 09:29:53;;;;;;;30.10;19.58;;;16.60;99.90;;;;;;4973960;28;20054;-67
2022/09/10 09:32:21;;;;;;;28.35;19.33;;;16.70;99.90;;;;;;4991611;28;20066;-68
2022/09/10 09:34:51;;;;;;;28.60;19.10;;;16.60;99.90;;;;;;4986757;28;20052;-69
2022/09/10 09:37:23;;;;;;;30.23;19.50;;;16.50;99.90;;;;;;4994310;28;20046;-67
2022/09/10 09:40:05;;;;;;;27.73;18.65;;;16.50;99.90;;;;;;4995088;28;20054;-67
2022/09/10 09:42:47;;;;;;;30.95;20.25;;;16.60;99.90;;;;;;4992686;28;20077;-67
2022/09/10 09:45:52;;;;;;;30.42;19.15;;;16.60;99.90;;;;;;4976779;28;20046;-68
2022/09/10 09:48:26;;;;;;;31.42;19.08;;;16.60;99.90;;;;;;4935540;29;20546;-69
2022/09/10 09:50:56;;;;;;;30.42;19.35;;;16.60;99.90;;;;;;4936284;29;20055;-68
2022/09/10 09:53:29;;;;;;;30.88;20.75;;;16.60;99.90;;;;;;4911073;28;20055;-69
2022/09/10 09:55:58;;;;;;;31.52;19.25;;;16.60;99.90;;;;;;4995871;28;20405;-69
2022/09/10 09:58:25;;;;;;;32.08;19.77;;;16.60;99.90;;;;;;4993499;28;20046;-68
2022/09/10 10:01:02;;;;;;;28.88;18.98;;;16.70;99.90;;;;;;4995939;28;20375;-68
2022/09/10 10:03:30;;;;;;;30.05;18.67;;;16.70;99.90;;;;;;4995897;28;20384;-68
2022/09/10 10:06:08;;;;;;;30.63;18.48;;;16.80;99.90;;;;;;4979254;28;20056;-68
2022/09/10 10:08:40;;;;;;;33.72;19.90;;;16.80;99.90;;;;;;4959034;28;20047;-69
2022/09/10 10:11:07;;;;;;;25.13;17.90;;;16.90;99.90;;;;;;4993020;28;20371;-69
2022/09/10 10:13:43;;;;;;;25.58;18.25;;;16.90;99.90;;;;;;4990799;28;20046;-68
2022/09/10 10:16:20;;;;;;;25.75;18.25;;;17.00;99.90;;;;;;4970162;28;20078;-68
2022/09/10 10:18:50;;;;;;;35.58;18.73;;;17.00;99.90;;;;;;4993279;28;20392;-68
2022/09/10 10:21:30;;;;;;;22.05;17.13;;;17.10;99.90;;;;;;4978038;28;20446;-68
2022/09/10 10:23:56;;;;;;;25.08;15.95;;;17.10;99.90;;;;;;4975930;28;20065;-69
2022/09/10 10:26:31;;;;;;;22.73;16.80;;;17.20;99.90;;;;;;4975904;28;20039;-68
2022/09/10 10:29:06;;;;;;;26.27;17.38;;;17.20;99.90;;;;;;4990946;28;20612;-69
2022/09/10 10:31:50;;;;;;;28.20;17.55;;;17.10;99.90;;;;;;4994178;28;20068;-69
2022/09/10 10:34:31;;;;;;;23.92;16.95;;;17.10;99.90;;;;;;4958668;28;20047;-69
2022/09/10 10:37:15;;;;;;;24.58;17.02;;;17.10;99.90;;;;;;4980262;28;20065;-68
2022/09/10 10:40:10;;;;;;;23.45;17.05;;;17.20;99.90;;;;;;4994358;28;20034;-69
2022/09/10 10:42:52;;;;;;;25.23;16.90;;;17.30;99.90;;;;;;4979424;28;20034;-68
2022/09/10 10:45:46;;;;;;;25.25;16.23;;;17.40;99.90;;;;;;4993828;28;20045;-69
2022/09/10 10:48:29;;;;;;;25.45;15.70;;;17.30;99.90;;;;;;4992324;28;20046;-69
2022/09/10 10:51:03;;;;;;;23.95;16.02;;;17.40;99.90;;;;;;4994711;28;20506;-69
2022/09/10 10:54:06;;;;;;;25.42;16.52;;;17.40;99.90;;;;;;4993899;28;20153;-69
2022/09/10 10:56:41;;;;;;;27.52;16.25;;;17.40;99.90;;;;;;4993599;28;20048;-68
2022/09/10 10:59:39;;;;;;;25.75;17.38;;;17.50;99.90;;;;;;4976694;28;20545;-68
2022/09/10 11:02:25;;;;;;;26.15;16.20;;;17.40;99.90;;;;;;4960342;28;20054;-68
2022/09/10 11:04:53;;;;;;;29.27;16.15;;;17.40;99.90;;;;;;4985226;28;20363;-69
2022/09/10 11:07:18;;;;;;;;;;;17.40;99.90;;;;;;4975754;28;20043;-68
2022/09/10 11:09:59;;;;;;;24.98;14.93;;;17.40;99.90;;;;;;4982860;28;20060;-69
2022/09/10 11:12:35;;;;;;;23.75;15.68;;;17.40;99.90;;;;;;4982707;28;20053;-68
2022/09/10 11:15:12;;;;;;;23.77;15.40;;;17.40;99.90;;;;;;4993772;28;20046;-68
2022/09/10 11:17:46;;;;;;;23.23;14.73;;;17.50;99.90;;;;;;4978634;28;20047;-69
2022/09/10 11:20:29;;;;;;;20.42;13.73;;;17.50;99.90;;;;;;4975085;28;20049;-68
2022/09/10 11:23:29;;;;;;;19.92;14.13;;;17.60;99.90;;;;;;4979883;28;20043;-68
2022/09/10 11:26:13;;;;;;;23.45;15.20;;;17.70;99.90;;;;;;4992750;28;20038;-68
2022/09/10 11:29:13;;;;;;;26.52;14.95;;;17.70;99.90;;;;;;4987147;28;20054;-69
2022/09/10 11:31:43;;;;;;;20.50;14.15;;;17.80;99.90;;;;;;4964898;28;20051;-68
2022/09/10 11:34:40;;;;;;;22.20;15.20;;;18.00;99.90;;;;;;4973609;28;20062;-69
2022/09/10 11:37:39;;;;;;;18.80;13.63;;;18.10;99.90;;;;;;4980296;28;20094;-70
2022/09/10 11:40:29;;;;;;;18.10;14.67;;;18.10;99.90;;;;;;4990135;28;20442;-70
2022/09/10 11:43:02;;;;;;;24.65;14.88;;;18.30;99.90;;;;;;4989137;28;20047;-68
2022/09/10 11:45:39;;;;;;;21.85;14.65;;;18.30;99.90;;;;;;4983192;28;20047;-68
2022/09/10 11:48:21;;;;;;;22.63;14.40;;;18.30;99.90;;;;;;4982879;28;20047;-68
2022/09/10 11:50:56;;;;;;;21.45;13.63;;;18.40;99.90;;;;;;4992431;28;20054;-68
2022/09/10 11:53:23;;;;;;;18.48;13.10;;;18.60;99.90;;;;;;4992483;28;20046;-68
2022/09/10 11:56:20;;;;;;;18.08;12.45;;;18.90;99.90;;;;;;4980031;28;20043;-68
2022/09/10 11:59:05;;;;;;;15.77;12.55;;;19.20;99.90;;;;;;4988886;28;20410;-68
2022/09/10 12:02:01;;;;;;;15.15;11.65;;;19.80;99.90;;;;;;4987069;28;20034;-68
2022/09/10 12:04:35;;;;;;;16.38;12.18;;;20.20;99.90;;;;;;4974575;28;20043;-68
2022/09/10 12:07:25;;;;;;;15.05;11.13;;;20.20;99.90;;;;;;4974898;28;20047;-67
2022/09/10 12:09:57;;;;;;;16.98;10.57;;;20.60;99.90;;;;;;4984292;28;20088;-68
2022/09/10 12:12:44;;;;;;;12.77;9.18;;;21.50;99.90;;;;;;4989815;28;20082;-68
2022/09/10 12:15:22;;;;;;;12.52;7.53;;;22.10;99.90;;;;;;4986781;28;20043;-68
2022/09/10 12:17:57;;;;;;;9.38;7.38;;;22.50;99.90;;;;;;4989216;28;20120;-68
2022/09/10 12:20:34;;;;;;;10.30;7.38;;;22.70;99.90;;;;;;4975982;28;20054;-68
2022/09/10 12:23:00;;;;;;;8.30;6.45;;;22.70;99.90;;;;;;4993201;28;20042;-68
2022/09/10 12:25:30;;;;;;;8.77;6.18;;;22.50;99.90;;;;;;4991829;28;20467;-67
2022/09/10 12:27:58;;;;;;;11.50;5.82;;;22.30;99.90;;;;;;4988273;28;20074;-68
2022/09/10 12:30:26;;;;;;;8.45;6.50;;;22.30;99.90;;;;;;4997742;28;20085;-68
2022/09/10 12:33:12;;;;;;;10.63;6.32;;;22.50;99.90;;;;;;4979044;28;20054;-69
2022/09/10 12:35:47;;;;;;;8.23;5.93;;;23.10;99.90;;;;;;4952779;28;20052;-69
2022/09/10 12:38:49;;;;;;;9.07;6.15;;;23.60;99.90;;;;;;4993285;28;20031;-69
2022/09/10 12:41:24;;;;;;;9.32;5.88;;;24.10;99.90;;;;;;4998179;28;20554;-69
2022/09/10 12:43:58;;;;;;;14.30;6.85;;;24.60;99.90;;;;;;4989735;28;20042;-69
2022/09/10 12:46:24;;;;;;;7.93;6.10;;;24.60;99.90;;;;;;4984822;28;20421;-68
2022/09/10 12:49:05;;;;;;;7.63;6.25;;;24.60;99.90;;;;;;4972660;28;20131;-69
2022/09/10 12:51:55;;;;;;;7.47;5.80;;;24.40;99.20;;;;;;4990584;28;20050;-68
2022/09/10 12:54:54;;;;;;;8.45;5.40;;;23.70;99.90;;;;;;4974340;28;20046;-69